createdAt,value
2023-01-29T00:00:26.707Z,22.03
2023-01-29T00:02:54.919Z,19.70
2023-01-29T00:08:21.611Z,18.77
2023-01-29T00:10:20.921Z,19.87
2023-01-29T00:10:50.288Z,21.97
2023-01-29T00:13:18.647Z,20.90
2023-01-29T00:15:56.804Z,22.90
2023-01-29T00:18:25.433Z,20.00
2023-01-29T00:20:57.170Z,21.42
2023-01-29T00:23:28.486Z,17.73
2023-01-29T00:26:02.237Z,19.40
2023-01-29T00:28:30.857Z,18.80
2023-01-29T00:31:09.096Z,21.80
2023-01-29T00:33:39.819Z,24.37
2023-01-29T00:36:15.622Z,19.40
2023-01-29T00:38:45.026Z,20.87
2023-01-29T00:41:35.766Z,19.60
2023-01-29T00:44:25.429Z,20.20
2023-01-29T00:46:56.724Z,21.27
2023-01-29T00:49:27.490Z,17.80
2023-01-29T00:52:13.647Z,21.30
2023-01-29T00:54:41.698Z,23.67
2023-01-29T00:57:14.813Z,19.20
2023-01-29T00:59:50.696Z,22.17
2023-01-29T01:02:38.697Z,19.53
2023-01-29T01:05:14.214Z,20.43
2023-01-29T01:07:42.785Z,15.30
2023-01-29T01:10:22.404Z,18.10
2023-01-29T01:12:54.643Z,20.57
2023-01-29T01:15:23.835Z,18.03
2023-01-29T01:17:55.845Z,16.93
2023-01-29T01:20:24.480Z,19.73
2023-01-29T01:22:52.861Z,19.50
2023-01-29T01:25:21.665Z,14.90
2023-01-29T01:27:53.382Z,17.50
2023-01-29T01:30:21.796Z,15.60
2023-01-29T01:32:49.990Z,20.43
2023-01-29T01:35:19.770Z,18.33
2023-01-29T01:37:47.804Z,24.20
2023-01-29T01:40:19.225Z,23.00
2023-01-29T01:42:50.145Z,15.63
2023-01-29T01:45:25.953Z,15.73
2023-01-29T01:47:58.099Z,14.63
2023-01-29T01:50:31.489Z,15.27
2023-01-29T01:53:03.373Z,16.60
2023-01-29T01:55:34.422Z,23.97
2023-01-29T01:58:07.553Z,15.73
2023-01-29T02:00:35.798Z,17.97
2023-01-29T02:03:22.471Z,16.63
2023-01-29T02:06:12.101Z,16.30
2023-01-29T02:09:08.364Z,19.07
2023-01-29T02:11:38.137Z,17.20
2023-01-29T02:14:06.169Z,13.97
2023-01-29T02:16:42.384Z,16.60
2023-01-29T02:19:18.179Z,18.67
2023-01-29T02:22:17.387Z,15.80
2023-01-29T02:25:19.742Z,16.07
2023-01-29T02:28:16.925Z,15.97
2023-01-29T02:30:51.422Z,13.93
2023-01-29T02:33:29.681Z,14.73
2023-01-29T02:36:02.042Z,9.50
2023-01-29T02:38:36.186Z,11.87
2023-01-29T02:41:09.957Z,9.40
2023-01-29T02:43:46.051Z,9.50
2023-01-29T02:46:19.862Z,11.60
2023-01-29T02:48:56.748Z,13.37
2023-01-29T02:51:31.749Z,11.27
2023-01-29T02:54:05.337Z,9.23
2023-01-29T02:56:37.996Z,9.00
2023-01-29T02:59:11.787Z,12.13
2023-01-29T03:01:44.980Z,8.33
2023-01-29T03:04:16.935Z,8.60
2023-01-29T03:06:49.769Z,12.20
2023-01-29T03:09:25.373Z,6.70
2023-01-29T03:11:59.290Z,9.40
2023-01-29T03:15:01.305Z,9.47
2023-01-29T03:20:32.799Z,10.30
2023-01-29T03:23:06.420Z,8.17
2023-01-29T03:25:54.835Z,9.10
2023-01-29T03:28:41.940Z,8.10
2023-01-29T03:31:31.175Z,11.93
2023-01-29T03:34:04.692Z,9.33
2023-01-29T03:36:39.836Z,11.00
2023-01-29T03:39:09.180Z,8.63
2023-01-29T03:41:39.483Z,10.60
2023-01-29T03:44:15.926Z,12.00
2023-01-29T03:46:53.568Z,10.73
2023-01-29T03:49:33.014Z,9.83
2023-01-29T03:52:08.747Z,12.80
2023-01-29T03:54:54.939Z,10.30
2023-01-29T03:57:32.759Z,11.90
2023-01-29T04:00:06.259Z,13.27
2023-01-29T04:02:39.883Z,11.67
2023-01-29T04:05:13.306Z,11.27
2023-01-29T04:07:42.530Z,16.00
2023-01-29T04:10:14.471Z,11.07
2023-01-29T04:12:47.747Z,15.20
2023-01-29T04:15:18.101Z,11.40
2023-01-29T04:17:52.656Z,14.33
2023-01-29T04:20:21.904Z,11.60
2023-01-29T04:22:52.139Z,10.50
2023-01-29T04:25:26.730Z,14.43
2023-01-29T04:28:03.556Z,11.40
2023-01-29T04:30:43.912Z,11.83
2023-01-29T04:33:24.671Z,10.90
2023-01-29T04:36:15.876Z,10.50
2023-01-29T04:38:53.751Z,13.17
2023-01-29T04:41:25.456Z,12.53
2023-01-29T04:44:04.163Z,14.40
2023-01-29T04:46:38.404Z,12.20
2023-01-29T04:49:16.097Z,10.70
2023-01-29T04:51:52.913Z,10.87
2023-01-29T04:54:30.686Z,11.70
2023-01-29T04:57:07.335Z,11.90
2023-01-29T04:59:40.010Z,11.63
2023-01-29T05:02:11.722Z,14.17
2023-01-29T05:04:44.539Z,12.90
2023-01-29T05:07:15.837Z,18.77
2023-01-29T05:09:46.386Z,15.10
2023-01-29T05:12:17.513Z,13.80
2023-01-29T05:14:48.081Z,12.57
2023-01-29T05:17:19.335Z,13.47
2023-01-29T05:19:49.345Z,14.73
2023-01-29T05:22:22.604Z,13.30
2023-01-29T05:24:51.355Z,16.17
2023-01-29T05:27:39.916Z,14.57
2023-01-29T05:30:10.436Z,15.63
2023-01-29T05:32:39.881Z,13.73
2023-01-29T05:35:09.736Z,12.87
2023-01-29T05:37:37.949Z,12.03
2023-01-29T05:40:08.882Z,14.20
2023-01-29T05:42:36.951Z,13.97
2023-01-29T05:45:05.390Z,11.73
2023-01-29T05:47:33.303Z,11.47
2023-01-29T05:50:01.396Z,15.63
2023-01-29T05:52:30.789Z,14.30
2023-01-29T05:54:58.762Z,14.80
2023-01-29T05:57:26.789Z,12.53
2023-01-29T05:59:54.692Z,13.90
2023-01-29T06:02:23.113Z,12.10
2023-01-29T06:04:52.882Z,14.87
2023-01-29T06:07:21.195Z,10.10
2023-01-29T06:09:50.492Z,13.00
2023-01-29T06:12:18.381Z,11.50
2023-01-29T06:14:46.438Z,11.10
2023-01-29T06:17:14.423Z,12.10
2023-01-29T06:19:42.334Z,13.47
2023-01-29T06:22:10.412Z,12.10
2023-01-29T06:24:38.325Z,13.70
2023-01-29T06:27:07.740Z,11.30
2023-01-29T06:29:36.509Z,13.63
2023-01-29T06:32:04.805Z,12.73
2023-01-29T06:34:32.900Z,13.17
2023-01-29T06:37:00.964Z,11.13
2023-01-29T06:39:28.869Z,10.13
2023-01-29T06:41:57.192Z,14.30
2023-01-29T06:44:26.827Z,14.90
2023-01-29T06:46:54.866Z,12.40
2023-01-29T06:49:23.353Z,10.50
2023-01-29T06:51:51.535Z,9.77
2023-01-29T06:54:19.544Z,15.37
2023-01-29T06:56:47.420Z,18.00
2023-01-29T06:59:15.500Z,12.20
2023-01-29T07:01:45.043Z,11.23
2023-01-29T07:04:13.256Z,13.20
2023-01-29T07:06:41.606Z,12.30
2023-01-29T07:09:09.768Z,14.00
2023-01-29T07:11:38.044Z,14.60
2023-01-29T07:14:05.952Z,11.73
2023-01-29T07:16:34.892Z,11.80
2023-01-29T07:19:04.347Z,11.30
2023-01-29T07:21:32.392Z,11.77
2023-01-29T07:24:00.326Z,11.80
2023-01-29T07:26:28.649Z,15.60
2023-01-29T07:28:57.165Z,13.53
2023-01-29T07:31:25.173Z,15.80
2023-01-29T07:33:53.120Z,13.43
2023-01-29T07:36:22.541Z,13.67
2023-01-29T07:38:51.219Z,10.70
2023-01-29T07:41:19.126Z,12.07
2023-01-29T07:43:47.327Z,13.03
2023-01-29T07:46:15.427Z,12.33
2023-01-29T07:48:43.519Z,15.20
2023-01-29T07:51:11.453Z,13.10
2023-01-29T07:53:40.898Z,11.83
2023-01-29T07:56:09.321Z,12.23
2023-01-29T07:58:37.348Z,14.90
2023-01-29T08:01:08.116Z,13.50
2023-01-29T08:03:36.516Z,13.80
2023-01-29T08:06:05.039Z,11.70
2023-01-29T08:08:32.974Z,17.63
2023-01-29T08:11:05.689Z,12.37
2023-01-29T08:13:34.371Z,13.67
2023-01-29T08:16:02.927Z,13.23
2023-01-29T08:18:32.346Z,12.10
2023-01-29T08:21:01.880Z,11.67
2023-01-29T08:23:30.137Z,13.90
2023-01-29T08:25:58.284Z,14.50
2023-01-29T08:28:28.156Z,14.77
2023-01-29T08:30:56.611Z,11.87
2023-01-29T08:33:38.084Z,10.13
2023-01-29T08:36:08.071Z,11.57
2023-01-29T08:38:36.260Z,8.17
2023-01-29T08:41:04.389Z,10.03
2023-01-29T08:43:33.709Z,10.03
2023-01-29T08:46:01.904Z,11.50
2023-01-29T08:48:30.443Z,10.73
2023-01-29T08:50:59.118Z,12.37
2023-01-29T08:53:27.353Z,10.10
2023-01-29T08:55:55.514Z,12.20
2023-01-29T08:58:23.536Z,9.20
2023-01-29T09:00:53.034Z,11.03
2023-01-29T09:03:21.005Z,9.63
2023-01-29T09:05:49.056Z,10.60
2023-01-29T09:08:16.955Z,9.43
2023-01-29T09:10:45.356Z,12.10
2023-01-29T09:13:13.409Z,11.80
2023-01-29T09:15:41.420Z,11.83
2023-01-29T09:18:11.004Z,12.03
2023-01-29T09:20:38.922Z,10.37
2023-01-29T09:23:07.530Z,12.20
2023-01-29T09:25:35.566Z,13.00
2023-01-29T09:28:03.501Z,11.33
2023-01-29T09:30:33.467Z,13.60
2023-01-29T09:33:02.020Z,13.37
2023-01-29T09:35:31.442Z,14.40
2023-01-29T09:37:59.559Z,14.67
2023-01-29T09:40:33.124Z,12.73
2023-01-29T09:43:05.296Z,13.33
2023-01-29T09:45:33.760Z,14.77
2023-01-29T09:48:05.686Z,16.10
2023-01-29T09:50:40.980Z,14.23
2023-01-29T09:53:17.779Z,12.97
2023-01-29T09:55:51.439Z,13.33
2023-01-29T09:58:24.951Z,14.00
2023-01-29T10:01:00.912Z,13.97
2023-01-29T10:03:55.066Z,14.27
2023-01-29T10:06:36.379Z,12.03
2023-01-29T10:09:39.913Z,11.90
2023-01-29T10:12:19.986Z,13.10
2023-01-29T10:14:58.102Z,13.93
2023-01-29T10:17:43.065Z,13.50
2023-01-29T10:20:41.531Z,13.27
2023-01-29T10:23:19.770Z,11.80
2023-01-29T10:25:49.471Z,12.23
2023-01-29T10:28:19.964Z,14.90
2023-01-29T10:30:51.164Z,12.60
2023-01-29T10:33:26.325Z,14.27
2023-01-29T10:35:59.195Z,13.13
2023-01-29T10:38:38.972Z,13.03
2023-01-29T10:47:18.806Z,14.10
2023-01-29T10:50:06.341Z,12.57
2023-01-29T10:52:46.283Z,10.60
2023-01-29T10:55:32.072Z,14.83
2023-01-29T10:58:09.233Z,12.63
2023-01-29T11:00:40.447Z,15.03
2023-01-29T11:03:27.113Z,11.50
2023-01-29T11:06:02.474Z,13.37
2023-01-29T11:08:35.571Z,14.83
2023-01-29T11:11:09.894Z,10.40
2023-01-29T11:13:42.487Z,13.93
2023-01-29T11:16:11.274Z,12.85
2023-01-29T11:18:59.438Z,10.93
2023-01-29T11:21:29.301Z,10.90
2023-01-29T11:24:08.807Z,13.40
2023-01-29T11:26:43.923Z,15.70
2023-01-29T11:29:32.768Z,14.53
2023-01-29T11:32:05.485Z,11.50
2023-01-29T11:34:33.610Z,16.20
2023-01-29T11:37:03.097Z,12.10
2023-01-29T11:39:32.570Z,12.93
2023-01-29T11:42:08.067Z,14.47
2023-01-29T11:44:42.633Z,12.27
2023-01-29T11:47:14.715Z,11.60
2023-01-29T11:49:47.305Z,10.70
2023-01-29T11:52:18.494Z,13.40
2023-01-29T11:54:50.828Z,11.93
2023-01-29T11:57:27.397Z,10.60
2023-01-29T11:59:57.932Z,15.37
2023-01-29T12:02:32.230Z,13.40
2023-01-29T12:05:04.831Z,16.17
2023-01-29T12:07:33.873Z,13.20
2023-01-29T12:10:02.088Z,11.03
2023-01-29T12:12:38.244Z,11.70
2023-01-29T12:15:25.406Z,13.57
2023-01-29T12:18:02.347Z,9.53
2023-01-29T12:20:37.259Z,14.80
2023-01-29T12:23:15.036Z,14.40
2023-01-29T12:25:57.470Z,14.40
2023-01-29T12:28:37.933Z,14.77
2023-01-29T12:31:17.788Z,13.20
2023-01-29T12:33:52.709Z,13.77
2023-01-29T12:36:26.277Z,15.23
2023-01-29T12:38:55.867Z,14.00
2023-01-29T12:41:36.112Z,14.83
2023-01-29T12:44:11.704Z,15.17
2023-01-29T12:46:44.130Z,16.10
2023-01-29T12:49:17.199Z,14.77
2023-01-29T12:51:54.463Z,14.07
2023-01-29T12:54:28.108Z,15.20
2023-01-29T12:57:01.928Z,15.90
2023-01-29T12:59:37.605Z,14.00
2023-01-29T13:02:17.357Z,17.40
2023-01-29T13:04:48.828Z,15.60
2023-01-29T13:07:20.023Z,18.03
2023-01-29T13:09:52.322Z,17.20
2023-01-29T13:12:23.201Z,14.17
2023-01-29T13:14:56.318Z,13.93
2023-01-29T13:17:30.072Z,14.93
2023-01-29T13:20:02.910Z,15.27
2023-01-29T13:22:35.972Z,13.67
2023-01-29T13:25:05.863Z,16.87
2023-01-29T13:27:36.058Z,16.15
2023-01-29T13:30:07.146Z,13.70
2023-01-29T13:32:36.935Z,16.23
2023-01-29T13:35:13.650Z,16.57
2023-01-29T13:37:48.535Z,10.30
2023-01-29T13:40:25.195Z,16.80
2023-01-29T13:42:54.628Z,17.35
2023-01-29T13:45:26.368Z,15.70
2023-01-29T13:47:55.147Z,11.40
2023-01-29T13:50:37.265Z,18.98
2023-01-29T13:53:08.242Z,14.00
2023-01-29T13:55:38.277Z,15.15
2023-01-29T13:58:06.943Z,17.43
2023-01-29T14:01:01.842Z,13.00
2023-01-29T14:04:05.001Z,13.07
2023-01-29T14:06:53.622Z,14.00
2023-01-29T14:09:56.955Z,13.60
2023-01-29T14:12:41.799Z,16.37
2023-01-29T14:15:21.706Z,16.20
2023-01-29T14:18:19.989Z,16.13
2023-01-29T14:21:05.803Z,15.15
2023-01-29T14:23:44.135Z,18.70
2023-01-29T14:26:24.613Z,12.20
2023-01-29T14:29:03.444Z,12.63
2023-01-29T14:31:37.530Z,15.07
2023-01-29T14:34:16.221Z,12.80
2023-01-29T14:36:46.203Z,14.53
2023-01-29T14:39:25.240Z,12.10
2023-01-29T14:41:53.826Z,11.52
2023-01-29T14:45:02.208Z,14.33
2023-01-29T14:47:55.776Z,9.43
2023-01-29T14:50:59.277Z,13.60
2023-01-29T14:53:34.865Z,16.23
2023-01-29T14:56:05.497Z,10.83
2023-01-29T14:58:39.249Z,17.87
2023-01-29T15:01:16.053Z,13.77
2023-01-29T15:03:48.848Z,15.73
2023-01-29T15:06:24.943Z,15.15
2023-01-29T15:09:01.142Z,15.50
2023-01-29T15:11:37.133Z,12.60
2023-01-29T15:14:18.888Z,10.00
2023-01-29T15:16:58.143Z,11.65
2023-01-29T15:19:30.867Z,10.97
2023-01-29T15:22:09.874Z,11.90
2023-01-29T15:24:38.852Z,12.13
2023-01-29T15:27:11.239Z,11.60
2023-01-29T15:29:39.754Z,12.97
2023-01-29T15:32:08.615Z,14.40
2023-01-29T15:34:36.859Z,18.80
2023-01-29T15:37:05.070Z,13.80
2023-01-29T15:39:44.692Z,13.10
2023-01-29T15:42:21.739Z,12.87
2023-01-29T15:44:49.608Z,8.90
2023-01-29T15:47:17.803Z,13.50
2023-01-29T15:49:49.026Z,14.87
2023-01-29T15:52:21.210Z,13.60
2023-01-29T15:54:51.329Z,14.80
2023-01-29T15:57:25.146Z,15.13
2023-01-29T15:59:55.636Z,14.53
2023-01-29T16:02:34.122Z,13.73
2023-01-29T16:05:02.600Z,13.80
2023-01-29T16:07:31.647Z,13.47
2023-01-29T16:10:01.616Z,17.40
2023-01-29T16:12:30.113Z,15.17
2023-01-29T16:14:58.392Z,14.70
2023-01-29T16:17:35.511Z,15.50
2023-01-29T16:20:06.205Z,12.13
2023-01-29T16:22:36.509Z,18.80
2023-01-29T16:25:08.772Z,12.30
2023-01-29T16:27:36.973Z,19.10
2023-01-29T16:30:07.553Z,14.77
2023-01-29T16:32:36.593Z,15.33
2023-01-29T16:35:04.828Z,15.43
2023-01-29T16:37:35.718Z,13.37
2023-01-29T16:40:16.096Z,16.73
2023-01-29T16:42:44.220Z,14.30
2023-01-29T16:45:27.902Z,16.03
2023-01-29T16:48:02.807Z,18.43
2023-01-29T16:50:40.554Z,21.10
2023-01-29T16:53:14.391Z,14.97
2023-01-29T16:55:47.061Z,17.33
2023-01-29T16:58:17.958Z,13.50
2023-01-29T17:00:48.734Z,15.93
2023-01-29T17:03:18.701Z,14.70
2023-01-29T17:05:47.324Z,17.37
2023-01-29T17:08:22.982Z,13.53
2023-01-29T17:10:52.762Z,14.57
2023-01-29T17:13:28.254Z,14.47
2023-01-29T17:16:02.851Z,17.27
2023-01-29T17:18:31.461Z,16.43
2023-01-29T17:20:59.439Z,17.60
2023-01-29T17:23:28.286Z,18.30
2023-01-29T17:25:57.672Z,16.00
2023-01-29T17:28:26.201Z,15.73
2023-01-29T17:31:05.842Z,15.33
2023-01-29T17:33:34.788Z,18.17
2023-01-29T17:36:02.879Z,18.23
2023-01-29T17:38:30.943Z,18.33
2023-01-29T17:41:04.807Z,16.67
2023-01-29T17:43:33.184Z,17.10
2023-01-29T17:46:01.163Z,18.13
2023-01-29T17:48:31.145Z,16.00
2023-01-29T17:51:01.868Z,16.77
2023-01-29T17:53:44.263Z,17.40
2023-01-29T17:56:19.433Z,15.53
2023-01-29T17:58:47.459Z,13.50
2023-01-29T18:01:15.540Z,14.07
2023-01-29T18:03:43.504Z,16.07
2023-01-29T18:06:13.092Z,12.57
2023-01-29T18:08:41.797Z,16.23
2023-01-29T18:11:12.410Z,14.47
2023-01-29T18:13:42.076Z,19.07
2023-01-29T18:16:10.270Z,16.37
2023-01-29T18:18:39.046Z,15.73
2023-01-29T18:21:07.823Z,16.60
2023-01-29T18:23:35.948Z,15.13
2023-01-29T18:26:03.903Z,17.37
2023-01-29T18:28:31.921Z,16.83
2023-01-29T18:31:02.669Z,14.80
2023-01-29T18:33:31.104Z,14.63
2023-01-29T18:35:59.043Z,16.63
2023-01-29T18:38:27.578Z,18.10
2023-01-29T18:41:03.014Z,24.30
2023-01-29T18:43:31.380Z,18.63
2023-01-29T18:46:01.030Z,16.00
2023-01-29T18:48:29.606Z,17.30
2023-01-29T18:50:57.773Z,15.93
2023-01-29T18:53:25.913Z,18.50
2023-01-29T18:55:58.455Z,17.83
2023-01-29T18:58:35.508Z,17.07
2023-01-29T19:01:11.759Z,22.23
2023-01-29T19:03:40.480Z,17.90
2023-01-29T19:06:10.432Z,14.07
2023-01-29T19:08:38.543Z,14.73
2023-01-29T19:11:08.150Z,14.57
2023-01-29T19:13:37.905Z,18.67
2023-01-29T19:16:10.053Z,19.07
2023-01-29T19:18:38.329Z,19.33
2023-01-29T19:21:10.644Z,21.40
2023-01-29T19:23:38.857Z,21.60
2023-01-29T19:26:07.414Z,20.10
2023-01-29T19:28:35.782Z,19.00
2023-01-29T19:31:04.368Z,16.57
2023-01-29T19:33:33.792Z,18.47
2023-01-29T19:36:02.817Z,20.63
2023-01-29T19:38:33.538Z,18.27
2023-01-29T19:41:02.259Z,21.03
2023-01-29T19:43:31.445Z,21.77
2023-01-29T19:46:00.996Z,22.60
2023-01-29T19:48:29.481Z,23.37
2023-01-29T19:51:00.278Z,24.23
2023-01-29T19:53:29.884Z,20.10
2023-01-29T19:55:59.922Z,20.40
2023-01-29T19:58:28.037Z,24.10
2023-01-29T20:00:57.512Z,20.43
2023-01-29T20:03:26.521Z,22.33
2023-01-29T20:05:54.587Z,20.10
2023-01-29T20:08:24.680Z,21.17
2023-01-29T20:10:52.781Z,17.67
2023-01-29T20:13:20.813Z,23.93
2023-01-29T20:15:50.216Z,23.83
2023-01-29T20:18:19.331Z,19.83
2023-01-29T20:20:48.970Z,22.63
2023-01-29T20:23:31.762Z,22.40
2023-01-29T20:26:06.768Z,19.30
2023-01-29T20:28:35.957Z,20.67
2023-01-29T20:31:04.924Z,20.07
2023-01-29T20:33:33.713Z,24.90
2023-01-29T20:36:03.731Z,16.47
2023-01-29T20:38:33.848Z,23.03
2023-01-29T20:41:08.113Z,22.60
2023-01-29T20:43:36.570Z,26.90
2023-01-29T20:46:05.238Z,23.90
2023-01-29T20:48:33.933Z,20.27
2023-01-29T20:51:06.559Z,23.70
2023-01-29T20:53:34.611Z,24.90
2023-01-29T20:56:04.631Z,25.93
2023-01-29T20:58:34.650Z,26.23
2023-01-29T21:01:03.401Z,23.70
2023-01-29T21:03:31.309Z,25.57
2023-01-29T21:06:00.007Z,25.53
2023-01-29T21:08:28.097Z,27.55
2023-01-29T21:10:56.184Z,22.23
2023-01-29T21:13:24.507Z,26.27
2023-01-29T21:15:53.853Z,22.37
2023-01-29T21:18:21.942Z,29.40
2023-01-29T21:20:51.039Z,20.03
2023-01-29T21:23:19.057Z,25.50
2023-01-29T21:25:48.167Z,26.03
2023-01-29T21:28:16.965Z,22.03
2023-01-29T21:30:44.969Z,24.30
2023-01-29T21:33:14.353Z,23.30
2023-01-29T21:35:42.393Z,24.50
2023-01-29T21:38:10.344Z,24.55
2023-01-29T21:40:38.264Z,23.07
2023-01-29T21:43:16.039Z,26.33
2023-01-29T21:45:44.458Z,24.77
2023-01-29T21:48:14.250Z,26.23
2023-01-29T21:50:42.481Z,27.30
2023-01-29T21:53:10.421Z,26.40
2023-01-29T21:55:38.539Z,29.80
2023-01-29T21:58:06.521Z,24.67
2023-01-29T22:00:34.675Z,19.87
2023-01-29T22:03:02.902Z,28.33
2023-01-29T22:05:32.171Z,28.03
2023-01-29T22:08:00.241Z,23.30
2023-01-29T22:10:28.622Z,30.80
2023-01-29T22:12:56.979Z,29.02
2023-01-29T22:15:24.943Z,24.60
2023-01-29T22:17:52.987Z,29.02
2023-01-29T22:20:20.963Z,23.00
2023-01-29T22:22:51.408Z,28.90
2023-01-29T22:25:20.212Z,29.60
2023-01-29T22:27:48.316Z,28.57
2023-01-29T22:30:16.781Z,30.08
2023-01-29T22:32:45.104Z,27.80
2023-01-29T22:35:13.245Z,26.83
2023-01-29T22:37:41.412Z,29.50
2023-01-29T22:40:12.588Z,30.43
2023-01-29T22:42:40.538Z,32.87
2023-01-29T22:45:10.673Z,31.50
2023-01-29T22:47:39.035Z,31.10
2023-01-29T22:50:08.701Z,24.33
2023-01-29T22:52:39.567Z,31.00
2023-01-29T22:55:10.926Z,29.48
2023-01-29T22:57:39.649Z,29.40
2023-01-29T23:00:10.591Z,28.90
2023-01-29T23:02:38.934Z,27.00
2023-01-29T23:05:07.864Z,36.70
2023-01-29T23:07:35.937Z,30.75
2023-01-29T23:10:04.309Z,29.37
2023-01-29T23:12:33.577Z,26.52
2023-01-29T23:15:01.622Z,28.30
2023-01-29T23:17:29.676Z,29.40
2023-01-29T23:19:57.696Z,25.80
2023-01-29T23:22:25.864Z,32.00
2023-01-29T23:24:53.756Z,29.10
2023-01-29T23:27:20.843Z,29.90
2023-01-29T23:29:50.581Z,30.85
2023-01-29T23:32:20.806Z,28.92
2023-01-29T23:34:48.844Z,31.10
2023-01-29T23:37:16.897Z,29.92
2023-01-29T23:39:44.952Z,33.63
2023-01-29T23:42:12.919Z,30.00
2023-01-29T23:44:41.291Z,34.83
2023-01-29T23:47:10.974Z,28.08
2023-01-29T23:49:39.205Z,29.95
2023-01-29T23:52:07.733Z,32.95
2023-01-29T23:54:35.675Z,29.80
2023-01-29T23:57:03.871Z,30.58
2023-01-29T23:59:31.938Z,31.55
